sensor_id;sensor_type;location;lat;lon;timestamp;P1;durP1;ratioP1;P2;durP2;ratioP2
5052;SDS011;2545;50.892;5.740;2023-02-15T00:01:49;36.13;;;18.20;;
5052;SDS011;2545;50.892;5.740;2023-02-15T00:04:19;36.30;;;18.77;;
5052;SDS011;2545;50.892;5.740;2023-02-15T00:06:46;36.03;;;17.90;;
5052;SDS011;2545;50.892;5.740;2023-02-15T00:09:12;38.60;;;18.80;;
5052;SDS011;2545;50.892;5.740;2023-02-15T00:11:38;32.70;;;18.33;;
5052;SDS011;2545;50.892;5.740;2023-02-15T00:14:21;41.60;;;18.70;;
5052;SDS011;2545;50.892;5.740;2023-02-15T00:16:48;41.00;;;18.30;;
5052;SDS011;2545;50.892;5.740;2023-02-15T00:19:15;39.53;;;19.00;;
5052;SDS011;2545;50.892;5.740;2023-02-15T00:21:42;37.37;;;16.83;;
5052;SDS011;2545;50.892;5.740;2023-02-15T00:24:08;41.03;;;18.00;;
5052;SDS011;2545;50.892;5.740;2023-02-15T00:26:37;41.67;;;18.13;;
5052;SDS011;2545;50.892;5.740;2023-02-15T00:29:03;31.17;;;17.07;;
5052;SDS011;2545;50.892;5.740;2023-02-15T00:31:29;32.67;;;17.13;;
5052;SDS011;2545;50.892;5.740;2023-02-15T00:34:00;31.53;;;16.70;;
5052;SDS011;2545;50.892;5.740;2023-02-15T00:36:47;36.90;;;17.93;;
5052;SDS011;2545;50.892;5.740;2023-02-15T00:39:13;37.43;;;20.67;;
5052;SDS011;2545;50.892;5.740;2023-02-15T00:41:39;37.53;;;18.17;;
5052;SDS011;2545;50.892;5.740;2023-02-15T00:44:05;40.93;;;18.60;;
5052;SDS011;2545;50.892;5.740;2023-02-15T00:46:31;39.83;;;18.20;;
5052;SDS011;2545;50.892;5.740;2023-02-15T00:48:56;30.00;;;17.47;;
5052;SDS011;2545;50.892;5.740;2023-02-15T00:51:22;36.53;;;18.33;;
5052;SDS011;2545;50.892;5.740;2023-02-15T00:53:47;38.73;;;18.03;;
5052;SDS011;2545;50.892;5.740;2023-02-15T00:56:13;36.90;;;18.17;;
5052;SDS011;2545;50.892;5.740;2023-02-15T00:58:38;33.23;;;17.70;;
5052;SDS011;2545;50.892;5.740;2023-02-15T01:01:05;33.63;;;17.30;;
5052;SDS011;2545;50.892;5.740;2023-02-15T01:03:42;36.03;;;18.13;;
5052;SDS011;2545;50.892;5.740;2023-02-15T01:06:07;41.83;;;17.57;;
5052;SDS011;2545;50.892;5.740;2023-02-15T01:08:34;33.53;;;16.77;;
5052;SDS011;2545;50.892;5.740;2023-02-15T01:11:10;37.70;;;19.10;;
5052;SDS011;2545;50.892;5.740;2023-02-15T01:13:37;32.70;;;17.57;;
5052;SDS011;2545;50.892;5.740;2023-02-15T01:16:03;36.83;;;19.70;;
5052;SDS011;2545;50.892;5.740;2023-02-15T01:18:28;35.20;;;18.43;;
5052;SDS011;2545;50.892;5.740;2023-02-15T01:20:54;40.83;;;19.73;;
5052;SDS011;2545;50.892;5.740;2023-02-15T01:23:20;37.43;;;19.37;;
5052;SDS011;2545;50.892;5.740;2023-02-15T01:25:45;34.03;;;18.47;;
5052;SDS011;2545;50.892;5.740;2023-02-15T01:28:11;35.77;;;19.30;;
5052;SDS011;2545;50.892;5.740;2023-02-15T01:30:36;50.23;;;20.23;;
5052;SDS011;2545;50.892;5.740;2023-02-15T01:33:02;32.83;;;18.33;;
5052;SDS011;2545;50.892;5.740;2023-02-15T01:35:27;46.30;;;19.60;;
5052;SDS011;2545;50.892;5.740;2023-02-15T01:37:54;34.63;;;18.20;;
5052;SDS011;2545;50.892;5.740;2023-02-15T01:40:20;40.27;;;20.10;;
5052;SDS011;2545;50.892;5.740;2023-02-15T01:42:45;37.33;;;18.80;;
5052;SDS011;2545;50.892;5.740;2023-02-15T01:45:29;34.20;;;18.50;;
5052;SDS011;2545;50.892;5.740;2023-02-15T01:47:58;40.50;;;20.23;;
5052;SDS011;2545;50.892;5.740;2023-02-15T01:50:54;40.80;;;18.50;;
5052;SDS011;2545;50.892;5.740;2023-02-15T01:53:24;39.90;;;19.70;;
5052;SDS011;2545;50.892;5.740;2023-02-15T01:56:03;40.13;;;20.10;;
5052;SDS011;2545;50.892;5.740;2023-02-15T01:58:32;51.13;;;20.30;;
5052;SDS011;2545;50.892;5.740;2023-02-15T02:01:00;35.33;;;19.60;;
5052;SDS011;2545;50.892;5.740;2023-02-15T02:06:32;44.90;;;20.73;;
5052;SDS011;2545;50.892;5.740;2023-02-15T02:08:59;46.33;;;20.70;;
5052;SDS011;2545;50.892;5.740;2023-02-15T02:11:25;38.77;;;17.87;;
5052;SDS011;2545;50.892;5.740;2023-02-15T02:13:50;38.83;;;18.60;;
5052;SDS011;2545;50.892;5.740;2023-02-15T02:16:28;39.37;;;19.50;;
5052;SDS011;2545;50.892;5.740;2023-02-15T02:19:01;39.80;;;19.40;;
5052;SDS011;2545;50.892;5.740;2023-02-15T02:22:02;34.17;;;18.60;;
5052;SDS011;2545;50.892;5.740;2023-02-15T02:24:52;40.03;;;21.13;;
5052;SDS011;2545;50.892;5.740;2023-02-15T02:27:56;39.57;;;19.83;;
5052;SDS011;2545;50.892;5.740;2023-02-15T02:46:54;44.00;;;20.90;;
5052;SDS011;2545;50.892;5.740;2023-02-15T02:49:38;39.07;;;20.77;;
5052;SDS011;2545;50.892;5.740;2023-02-15T02:52:06;44.07;;;19.80;;
5052;SDS011;2545;50.892;5.740;2023-02-15T02:54:52;43.90;;;20.83;;
5052;SDS011;2545;50.892;5.740;2023-02-15T02:57:19;44.13;;;20.73;;
5052;SDS011;2545;50.892;5.740;2023-02-15T02:59:49;37.43;;;19.67;;
5052;SDS011;2545;50.892;5.740;2023-02-15T03:02:17;38.00;;;19.23;;
5052;SDS011;2545;50.892;5.740;2023-02-15T03:04:51;49.10;;;20.57;;
5052;SDS011;2545;50.892;5.740;2023-02-15T03:07:28;44.00;;;19.70;;
5052;SDS011;2545;50.892;5.740;2023-02-15T03:09:56;38.50;;;19.73;;
5052;SDS011;2545;50.892;5.740;2023-02-15T03:12:28;41.00;;;21.63;;
5052;SDS011;2545;50.892;5.740;2023-02-15T03:15:03;37.17;;;21.03;;
5052;SDS011;2545;50.892;5.740;2023-02-15T03:17:32;39.80;;;22.00;;
5052;SDS011;2545;50.892;5.740;2023-02-15T03:20:01;43.93;;;21.03;;
5052;SDS011;2545;50.892;5.740;2023-02-15T03:25:39;44.27;;;21.23;;
5052;SDS011;2545;50.892;5.740;2023-02-15T03:28:11;38.43;;;20.20;;
5052;SDS011;2545;50.892;5.740;2023-02-15T03:30:40;42.93;;;20.10;;
5052;SDS011;2545;50.892;5.740;2023-02-15T03:33:09;40.47;;;21.63;;
5052;SDS011;2545;50.892;5.740;2023-02-15T03:35:49;35.90;;;19.60;;
5052;SDS011;2545;50.892;5.740;2023-02-15T03:38:23;46.47;;;20.83;;
5052;SDS011;2545;50.892;5.740;2023-02-15T03:40:54;47.13;;;20.33;;
5052;SDS011;2545;50.892;5.740;2023-02-15T03:46:17;46.47;;;22.90;;
5052;SDS011;2545;50.892;5.740;2023-02-15T03:48:55;35.73;;;19.77;;
5052;SDS011;2545;50.892;5.740;2023-02-15T03:51:26;50.00;;;23.40;;
5052;SDS011;2545;50.892;5.740;2023-02-15T03:54:42;51.30;;;22.87;;
5052;SDS011;2545;50.892;5.740;2023-02-15T03:57:10;53.17;;;22.77;;
5052;SDS011;2545;50.892;5.740;2023-02-15T04:00:14;47.10;;;22.87;;
5052;SDS011;2545;50.892;5.740;2023-02-15T04:05:31;50.53;;;21.63;;
5052;SDS011;2545;50.892;5.740;2023-02-15T04:07:57;44.77;;;21.67;;
5052;SDS011;2545;50.892;5.740;2023-02-15T04:10:22;49.03;;;22.10;;
5052;SDS011;2545;50.892;5.740;2023-02-15T04:13:06;46.80;;;21.80;;
5052;SDS011;2545;50.892;5.740;2023-02-15T04:15:31;48.80;;;21.47;;
5052;SDS011;2545;50.892;5.740;2023-02-15T04:18:15;48.07;;;22.07;;
5052;SDS011;2545;50.892;5.740;2023-02-15T04:20:43;45.87;;;20.90;;
5052;SDS011;2545;50.892;5.740;2023-02-15T04:23:28;38.13;;;19.90;;
5052;SDS011;2545;50.892;5.740;2023-02-15T04:26:12;46.47;;;23.33;;
5052;SDS011;2545;50.892;5.740;2023-02-15T04:28:37;50.40;;;21.03;;
5052;SDS011;2545;50.892;5.740;2023-02-15T04:31:02;50.67;;;23.00;;
5052;SDS011;2545;50.892;5.740;2023-02-15T04:33:28;39.73;;;20.97;;
5052;SDS011;2545;50.892;5.740;2023-02-15T04:35:53;45.43;;;20.50;;
5052;SDS011;2545;50.892;5.740;2023-02-15T04:38:18;45.77;;;20.87;;
5052;SDS011;2545;50.892;5.740;2023-02-15T04:40:43;44.60;;;22.00;;
5052;SDS011;2545;50.892;5.740;2023-02-15T04:43:09;48.87;;;22.60;;
5052;SDS011;2545;50.892;5.740;2023-02-15T04:45:34;44.57;;;21.97;;
5052;SDS011;2545;50.892;5.740;2023-02-15T04:47:59;46.20;;;22.73;;
5052;SDS011;2545;50.892;5.740;2023-02-15T04:50:25;47.87;;;21.27;;
5052;SDS011;2545;50.892;5.740;2023-02-15T04:52:50;43.37;;;22.43;;
5052;SDS011;2545;50.892;5.740;2023-02-15T04:55:15;45.83;;;22.97;;
5052;SDS011;2545;50.892;5.740;2023-02-15T04:57:41;48.37;;;22.27;;
5052;SDS011;2545;50.892;5.740;2023-02-15T05:00:06;43.47;;;21.93;;
5052;SDS011;2545;50.892;5.740;2023-02-15T05:02:33;44.40;;;22.30;;
5052;SDS011;2545;50.892;5.740;2023-02-15T05:04:59;37.50;;;20.30;;
5052;SDS011;2545;50.892;5.740;2023-02-15T05:07:24;43.33;;;22.07;;
5052;SDS011;2545;50.892;5.740;2023-02-15T05:09:49;41.83;;;20.57;;
5052;SDS011;2545;50.892;5.740;2023-02-15T05:12:14;39.70;;;20.77;;
5052;SDS011;2545;50.892;5.740;2023-02-15T05:14:40;47.33;;;20.83;;
5052;SDS011;2545;50.892;5.740;2023-02-15T05:17:05;48.97;;;22.70;;
5052;SDS011;2545;50.892;5.740;2023-02-15T05:19:31;50.63;;;22.40;;
5052;SDS011;2545;50.892;5.740;2023-02-15T05:21:56;39.77;;;21.50;;
5052;SDS011;2545;50.892;5.740;2023-02-15T05:24:21;48.70;;;23.83;;
5052;SDS011;2545;50.892;5.740;2023-02-15T05:27:05;50.17;;;21.47;;
5052;SDS011;2545;50.892;5.740;2023-02-15T05:29:49;37.93;;;20.70;;
5052;SDS011;2545;50.892;5.740;2023-02-15T05:32:15;42.03;;;19.73;;
5052;SDS011;2545;50.892;5.740;2023-02-15T05:34:40;45.73;;;22.00;;
5052;SDS011;2545;50.892;5.740;2023-02-15T05:37:05;49.77;;;20.80;;
5052;SDS011;2545;50.892;5.740;2023-02-15T05:39:32;44.73;;;21.47;;
5052;SDS011;2545;50.892;5.740;2023-02-15T05:41:58;48.50;;;22.30;;
5052;SDS011;2545;50.892;5.740;2023-02-15T05:44:24;44.97;;;20.90;;
5052;SDS011;2545;50.892;5.740;2023-02-15T05:46:50;42.90;;;21.90;;
5052;SDS011;2545;50.892;5.740;2023-02-15T05:49:15;44.20;;;20.90;;
5052;SDS011;2545;50.892;5.740;2023-02-15T05:51:40;47.20;;;21.90;;
5052;SDS011;2545;50.892;5.740;2023-02-15T05:54:06;45.70;;;21.47;;
5052;SDS011;2545;50.892;5.740;2023-02-15T05:56:31;47.17;;;22.43;;
5052;SDS011;2545;50.892;5.740;2023-02-15T05:58:56;47.37;;;21.60;;
5052;SDS011;2545;50.892;5.740;2023-02-15T06:01:22;46.73;;;21.87;;
5052;SDS011;2545;50.892;5.740;2023-02-15T06:03:47;45.90;;;22.10;;
5052;SDS011;2545;50.892;5.740;2023-02-15T06:06:13;44.90;;;19.93;;
5052;SDS011;2545;50.892;5.740;2023-02-15T06:08:39;45.03;;;22.03;;
5052;SDS011;2545;50.892;5.740;2023-02-15T06:11:05;46.87;;;22.67;;
5052;SDS011;2545;50.892;5.740;2023-02-15T06:13:31;49.73;;;23.90;;
5052;SDS011;2545;50.892;5.740;2023-02-15T06:15:57;41.70;;;21.50;;
5052;SDS011;2545;50.892;5.740;2023-02-15T06:18:23;47.13;;;22.60;;
5052;SDS011;2545;50.892;5.740;2023-02-15T06:20:48;43.10;;;21.03;;
5052;SDS011;2545;50.892;5.740;2023-02-15T06:23:14;49.13;;;20.33;;
5052;SDS011;2545;50.892;5.740;2023-02-15T06:25:40;47.83;;;22.13;;
5052;SDS011;2545;50.892;5.740;2023-02-15T06:28:05;46.20;;;22.20;;
5052;SDS011;2545;50.892;5.740;2023-02-15T06:30:31;45.53;;;21.40;;
5052;SDS011;2545;50.892;5.740;2023-02-15T06:32:56;48.10;;;22.70;;
5052;SDS011;2545;50.892;5.740;2023-02-15T06:35:22;46.60;;;21.90;;
5052;SDS011;2545;50.892;5.740;2023-02-15T06:37:47;46.17;;;22.57;;
5052;SDS011;2545;50.892;5.740;2023-02-15T06:40:13;50.77;;;23.37;;
5052;SDS011;2545;50.892;5.740;2023-02-15T06:42:38;48.27;;;21.93;;
5052;SDS011;2545;50.892;5.740;2023-02-15T06:45:04;51.10;;;22.40;;
5052;SDS011;2545;50.892;5.740;2023-02-15T06:47:29;49.67;;;21.20;;
5052;SDS011;2545;50.892;5.740;2023-02-15T06:49:54;45.60;;;21.90;;
5052;SDS011;2545;50.892;5.740;2023-02-15T06:52:20;46.10;;;22.27;;
5052;SDS011;2545;50.892;5.740;2023-02-15T06:54:45;45.27;;;22.00;;
5052;SDS011;2545;50.892;5.740;2023-02-15T06:57:10;43.50;;;20.07;;
5052;SDS011;2545;50.892;5.740;2023-02-15T06:59:36;53.63;;;21.47;;
5052;SDS011;2545;50.892;5.740;2023-02-15T07:02:01;47.77;;;20.90;;
5052;SDS011;2545;50.892;5.740;2023-02-15T07:04:26;39.87;;;21.40;;
5052;SDS011;2545;50.892;5.740;2023-02-15T07:06:54;49.43;;;22.30;;
5052;SDS011;2545;50.892;5.740;2023-02-15T07:09:19;46.60;;;21.20;;
5052;SDS011;2545;50.892;5.740;2023-02-15T07:11:44;44.73;;;20.50;;
5052;SDS011;2545;50.892;5.740;2023-02-15T07:14:28;47.70;;;21.33;;
5052;SDS011;2545;50.892;5.740;2023-02-15T07:16:53;41.53;;;20.80;;
5052;SDS011;2545;50.892;5.740;2023-02-15T07:19:19;45.63;;;19.87;;
5052;SDS011;2545;50.892;5.740;2023-02-15T07:21:44;45.87;;;19.20;;
5052;SDS011;2545;50.892;5.740;2023-02-15T07:24:10;48.87;;;21.00;;
5052;SDS011;2545;50.892;5.740;2023-02-15T07:26:35;44.17;;;20.20;;
5052;SDS011;2545;50.892;5.740;2023-02-15T07:29:01;41.43;;;20.20;;
5052;SDS011;2545;50.892;5.740;2023-02-15T07:31:27;42.77;;;20.30;;
5052;SDS011;2545;50.892;5.740;2023-02-15T07:33:53;43.70;;;18.70;;
5052;SDS011;2545;50.892;5.740;2023-02-15T07:36:18;44.50;;;18.40;;
5052;SDS011;2545;50.892;5.740;2023-02-15T07:38:43;51.70;;;19.87;;
5052;SDS011;2545;50.892;5.740;2023-02-15T07:41:10;41.07;;;20.30;;
5052;SDS011;2545;50.892;5.740;2023-02-15T07:43:38;43.80;;;19.33;;
5052;SDS011;2545;50.892;5.740;2023-02-15T07:46:06;45.93;;;19.47;;
5052;SDS011;2545;50.892;5.740;2023-02-15T07:48:34;37.13;;;19.60;;
5052;SDS011;2545;50.892;5.740;2023-02-15T07:51:00;39.33;;;19.27;;
5052;SDS011;2545;50.892;5.740;2023-02-15T07:53:30;46.80;;;19.70;;
5052;SDS011;2545;50.892;5.740;2023-02-15T07:56:05;42.30;;;20.17;;
5052;SDS011;2545;50.892;5.740;2023-02-15T07:58:32;32.83;;;19.20;;
5052;SDS011;2545;50.892;5.740;2023-02-15T08:01:23;39.67;;;18.63;;
5052;SDS011;2545;50.892;5.740;2023-02-15T08:03:50;35.17;;;18.83;;
5052;SDS011;2545;50.892;5.740;2023-02-15T08:06:17;38.87;;;19.50;;
5052;SDS011;2545;50.892;5.740;2023-02-15T08:08:42;42.40;;;20.33;;
5052;SDS011;2545;50.892;5.740;2023-02-15T08:14:10;35.83;;;18.73;;
5052;SDS011;2545;50.892;5.740;2023-02-15T08:19:11;36.57;;;18.67;;
5052;SDS011;2545;50.892;5.740;2023-02-15T08:21:46;52.47;;;20.70;;
5052;SDS011;2545;50.892;5.740;2023-02-15T08:24:20;36.50;;;19.77;;
5052;SDS011;2545;50.892;5.740;2023-02-15T08:26:47;33.40;;;18.00;;
5052;SDS011;2545;50.892;5.740;2023-02-15T08:29:14;33.50;;;17.90;;
5052;SDS011;2545;50.892;5.740;2023-02-15T08:31:40;43.73;;;19.03;;
5052;SDS011;2545;50.892;5.740;2023-02-15T08:34:06;43.07;;;19.80;;
5052;SDS011;2545;50.892;5.740;2023-02-15T08:36:38;29.93;;;17.97;;
5052;SDS011;2545;50.892;5.740;2023-02-15T08:39:03;36.87;;;17.80;;
5052;SDS011;2545;50.892;5.740;2023-02-15T08:41:31;41.60;;;19.07;;
5052;SDS011;2545;50.892;5.740;2023-02-15T08:44:02;36.33;;;18.30;;
5052;SDS011;2545;50.892;5.740;2023-02-15T08:46:30;35.50;;;18.10;;
5052;SDS011;2545;50.892;5.740;2023-02-15T08:48:58;34.07;;;18.60;;
5052;SDS011;2545;50.892;5.740;2023-02-15T08:51:27;33.27;;;17.90;;
5052;SDS011;2545;50.892;5.740;2023-02-15T08:53:56;33.40;;;18.67;;
5052;SDS011;2545;50.892;5.740;2023-02-15T08:56:24;39.87;;;20.77;;
5052;SDS011;2545;50.892;5.740;2023-02-15T08:58:52;35.63;;;18.20;;
5052;SDS011;2545;50.892;5.740;2023-02-15T09:01:19;45.00;;;17.83;;
5052;SDS011;2545;50.892;5.740;2023-02-15T09:03:47;39.10;;;20.23;;
5052;SDS011;2545;50.892;5.740;2023-02-15T09:06:15;45.83;;;19.50;;
5052;SDS011;2545;50.892;5.740;2023-02-15T09:08:42;35.47;;;18.00;;
5052;SDS011;2545;50.892;5.740;2023-02-15T09:11:09;39.57;;;18.80;;
5052;SDS011;2545;50.892;5.740;2023-02-15T09:13:37;42.97;;;20.70;;
5052;SDS011;2545;50.892;5.740;2023-02-15T09:16:03;44.37;;;18.90;;
5052;SDS011;2545;50.892;5.740;2023-02-15T09:18:31;40.80;;;21.60;;
5052;SDS011;2545;50.892;5.740;2023-02-15T09:21:03;50.33;;;22.70;;
5052;SDS011;2545;50.892;5.740;2023-02-15T09:23:33;43.00;;;21.23;;
5052;SDS011;2545;50.892;5.740;2023-02-15T09:26:06;46.70;;;22.77;;
5052;SDS011;2545;50.892;5.740;2023-02-15T09:28:33;56.50;;;21.70;;
5052;SDS011;2545;50.892;5.740;2023-02-15T09:33:36;51.80;;;19.83;;
5052;SDS011;2545;50.892;5.740;2023-02-15T09:36:06;44.90;;;20.77;;
5052;SDS011;2545;50.892;5.740;2023-02-15T09:38:56;47.80;;;22.17;;
5052;SDS011;2545;50.892;5.740;2023-02-15T09:55:02;45.77;;;20.97;;
5052;SDS011;2545;50.892;5.740;2023-02-15T09:57:57;51.07;;;24.50;;
5052;SDS011;2545;50.892;5.740;2023-02-15T10:03:23;55.63;;;24.30;;
5052;SDS011;2545;50.892;5.740;2023-02-15T10:11:52;45.67;;;24.93;;
5052;SDS011;2545;50.892;5.740;2023-02-15T10:17:17;42.23;;;23.10;;
5052;SDS011;2545;50.892;5.740;2023-02-15T10:28:17;57.40;;;25.00;;
5052;SDS011;2545;50.892;5.740;2023-02-15T10:30:46;69.83;;;26.50;;
5052;SDS011;2545;50.892;5.740;2023-02-15T10:38:59;62.50;;;25.17;;
5052;SDS011;2545;50.892;5.740;2023-02-15T10:47:13;63.43;;;26.83;;
5052;SDS011;2545;50.892;5.740;2023-02-15T10:57:34;46.37;;;25.00;;
5052;SDS011;2545;50.892;5.740;2023-02-15T11:00:09;63.10;;;26.67;;
5052;SDS011;2545;50.892;5.740;2023-02-15T11:05:45;57.77;;;26.93;;
5052;SDS011;2545;50.892;5.740;2023-02-15T11:08:25;59.10;;;24.30;;
5052;SDS011;2545;50.892;5.740;2023-02-15T11:11:03;48.90;;;25.47;;
5052;SDS011;2545;50.892;5.740;2023-02-15T11:13:34;57.43;;;26.43;;
5052;SDS011;2545;50.892;5.740;2023-02-15T11:18:53;42.03;;;24.10;;
5052;SDS011;2545;50.892;5.740;2023-02-15T11:21:28;53.37;;;25.07;;
5052;SDS011;2545;50.892;5.740;2023-02-15T11:24:10;51.63;;;25.10;;
5052;SDS011;2545;50.892;5.740;2023-02-15T11:26:54;45.97;;;24.43;;
5052;SDS011;2545;50.892;5.740;2023-02-15T11:29:25;40.17;;;23.80;;
5052;SDS011;2545;50.892;5.740;2023-02-15T11:31:57;43.90;;;22.80;;
5052;SDS011;2545;50.892;5.740;2023-02-15T11:34:29;43.00;;;22.13;;
5052;SDS011;2545;50.892;5.740;2023-02-15T11:37:10;50.60;;;23.23;;
5052;SDS011;2545;50.892;5.740;2023-02-15T11:39:39;41.00;;;21.23;;
5052;SDS011;2545;50.892;5.740;2023-02-15T11:42:06;50.53;;;21.03;;
5052;SDS011;2545;50.892;5.740;2023-02-15T11:47:26;37.73;;;20.00;;
5052;SDS011;2545;50.892;5.740;2023-02-15T11:49:52;40.50;;;19.60;;
5052;SDS011;2545;50.892;5.740;2023-02-15T11:52:18;37.83;;;20.07;;
5052;SDS011;2545;50.892;5.740;2023-02-15T11:54:45;35.93;;;18.27;;
5052;SDS011;2545;50.892;5.740;2023-02-15T11:57:16;38.83;;;17.87;;
5052;SDS011;2545;50.892;5.740;2023-02-15T12:02:52;35.43;;;18.50;;
5052;SDS011;2545;50.892;5.740;2023-02-15T12:05:21;39.20;;;19.97;;
5052;SDS011;2545;50.892;5.740;2023-02-15T12:07:52;29.40;;;18.17;;
5052;SDS011;2545;50.892;5.740;2023-02-15T12:13:09;41.57;;;18.40;;
5052;SDS011;2545;50.892;5.740;2023-02-15T12:15:36;38.10;;;18.37;;
5052;SDS011;2545;50.892;5.740;2023-02-15T12:18:03;34.97;;;18.67;;
5052;SDS011;2545;50.892;5.740;2023-02-15T12:20:29;34.13;;;19.07;;
5052;SDS011;2545;50.892;5.740;2023-02-15T12:23:04;39.13;;;20.30;;
5052;SDS011;2545;50.892;5.740;2023-02-15T12:25:40;34.00;;;18.63;;
5052;SDS011;2545;50.892;5.740;2023-02-15T12:28:18;35.77;;;18.10;;
5052;SDS011;2545;50.892;5.740;2023-02-15T12:30:48;32.70;;;18.63;;
5052;SDS011;2545;50.892;5.740;2023-02-15T12:35:59;44.87;;;21.03;;
5052;SDS011;2545;50.892;5.740;2023-02-15T12:38:29;36.00;;;18.70;;
5052;SDS011;2545;50.892;5.740;2023-02-15T12:41:01;33.80;;;18.60;;
5052;SDS011;2545;50.892;5.740;2023-02-15T12:43:32;43.13;;;21.57;;
5052;SDS011;2545;50.892;5.740;2023-02-15T12:48:45;37.70;;;19.67;;
5052;SDS011;2545;50.892;5.740;2023-02-15T12:51:13;44.50;;;21.33;;
5052;SDS011;2545;50.892;5.740;2023-02-15T12:53:39;44.93;;;21.07;;
5052;SDS011;2545;50.892;5.740;2023-02-15T12:56:06;36.17;;;19.00;;
5052;SDS011;2545;50.892;5.740;2023-02-15T12:58:34;44.33;;;20.17;;
5052;SDS011;2545;50.892;5.740;2023-02-15T13:03:29;31.73;;;17.20;;
5052;SDS011;2545;50.892;5.740;2023-02-15T13:05:55;35.53;;;18.23;;
5052;SDS011;2545;50.892;5.740;2023-02-15T13:08:27;31.80;;;17.47;;
5052;SDS011;2545;50.892;5.740;2023-02-15T13:10:56;32.63;;;19.77;;
5052;SDS011;2545;50.892;5.740;2023-02-15T13:13:32;36.73;;;20.47;;
5052;SDS011;2545;50.892;5.740;2023-02-15T13:16:07;40.93;;;21.93;;
5052;SDS011;2545;50.892;5.740;2023-02-15T13:23:46;40.80;;;21.93;;
5052;SDS011;2545;50.892;5.740;2023-02-15T13:26:17;39.80;;;19.43;;
5052;SDS011;2545;50.892;5.740;2023-02-15T13:28:46;37.27;;;20.70;;
5052;SDS011;2545;50.892;5.740;2023-02-15T13:31:17;43.83;;;19.97;;
5052;SDS011;2545;50.892;5.740;2023-02-15T13:33:46;32.70;;;18.60;;
5052;SDS011;2545;50.892;5.740;2023-02-15T13:39:07;33.33;;;18.20;;
5052;SDS011;2545;50.892;5.740;2023-02-15T13:44:27;36.87;;;17.77;;
5052;SDS011;2545;50.892;5.740;2023-02-15T13:47:21;45.90;;;20.07;;
5052;SDS011;2545;50.892;5.740;2023-02-15T13:55:57;47.20;;;19.37;;
5052;SDS011;2545;50.892;5.740;2023-02-15T13:58:49;36.53;;;18.37;;
5052;SDS011;2545;50.892;5.740;2023-02-15T14:07:07;32.23;;;18.30;;
5052;SDS011;2545;50.892;5.740;2023-02-15T14:12:58;34.67;;;16.73;;
5052;SDS011;2545;50.892;5.740;2023-02-15T14:21:31;33.43;;;17.00;;
5052;SDS011;2545;50.892;5.740;2023-02-15T14:32:13;36.37;;;18.33;;
5052;SDS011;2545;50.892;5.740;2023-02-15T14:34:55;37.30;;;18.10;;
5052;SDS011;2545;50.892;5.740;2023-02-15T14:37:43;41.07;;;19.30;;
5052;SDS011;2545;50.892;5.740;2023-02-15T14:51:55;38.40;;;18.73;;
5052;SDS011;2545;50.892;5.740;2023-02-15T14:59:25;42.80;;;20.13;;
5052;SDS011;2545;50.892;5.740;2023-02-15T15:02:13;31.53;;;17.67;;
5052;SDS011;2545;50.892;5.740;2023-02-15T15:07:22;35.83;;;19.00;;
5052;SDS011;2545;50.892;5.740;2023-02-15T15:09:59;35.63;;;18.20;;
5052;SDS011;2545;50.892;5.740;2023-02-15T15:12:41;36.27;;;18.20;;
5052;SDS011;2545;50.892;5.740;2023-02-15T15:15:11;35.43;;;17.67;;
5052;SDS011;2545;50.892;5.740;2023-02-15T15:18:00;32.47;;;17.47;;
5052;SDS011;2545;50.892;5.740;2023-02-15T15:33:57;41.00;;;19.30;;
5052;SDS011;2545;50.892;5.740;2023-02-15T15:39:19;45.30;;;20.03;;
5052;SDS011;2545;50.892;5.740;2023-02-15T15:41:53;38.93;;;17.30;;
5052;SDS011;2545;50.892;5.740;2023-02-15T15:49:56;38.20;;;19.10;;
5052;SDS011;2545;50.892;5.740;2023-02-15T15:52:23;33.50;;;18.90;;
5052;SDS011;2545;50.892;5.740;2023-02-15T15:54:52;44.07;;;20.40;;
5052;SDS011;2545;50.892;5.740;2023-02-15T15:57:32;38.57;;;19.07;;
5052;SDS011;2545;50.892;5.740;2023-02-15T15:59:58;38.20;;;19.17;;
5052;SDS011;2545;50.892;5.740;2023-02-15T16:02:24;46.23;;;20.07;;
5052;SDS011;2545;50.892;5.740;2023-02-15T16:04:50;37.40;;;17.37;;
5052;SDS011;2545;50.892;5.740;2023-02-15T16:09:41;59.43;;;19.70;;
5052;SDS011;2545;50.892;5.740;2023-02-15T16:12:19;50.50;;;19.03;;
5052;SDS011;2545;50.892;5.740;2023-02-15T16:14:45;54.53;;;19.33;;
5052;SDS011;2545;50.892;5.740;2023-02-15T16:17:26;52.23;;;20.17;;
5052;SDS011;2545;50.892;5.740;2023-02-15T16:19:58;48.50;;;19.80;;
5052;SDS011;2545;50.892;5.740;2023-02-15T16:22:28;52.03;;;21.90;;
5052;SDS011;2545;50.892;5.740;2023-02-15T16:27:55;51.10;;;22.57;;
5052;SDS011;2545;50.892;5.740;2023-02-15T16:32:48;44.63;;;20.20;;
5052;SDS011;2545;50.892;5.740;2023-02-15T16:35:18;42.93;;;20.87;;
5052;SDS011;2545;50.892;5.740;2023-02-15T16:37:44;46.57;;;21.67;;
5052;SDS011;2545;50.892;5.740;2023-02-15T16:40:24;38.43;;;21.10;;
5052;SDS011;2545;50.892;5.740;2023-02-15T16:42:50;48.83;;;21.90;;
5052;SDS011;2545;50.892;5.740;2023-02-15T16:45:18;47.80;;;19.70;;
5052;SDS011;2545;50.892;5.740;2023-02-15T16:47:46;41.50;;;20.50;;
5052;SDS011;2545;50.892;5.740;2023-02-15T16:50:18;43.57;;;20.57;;
5052;SDS011;2545;50.892;5.740;2023-02-15T16:52:47;40.53;;;19.27;;
5052;SDS011;2545;50.892;5.740;2023-02-15T16:55:24;45.60;;;21.07;;
5052;SDS011;2545;50.892;5.740;2023-02-15T16:57:52;57.50;;;20.80;;
5052;SDS011;2545;50.892;5.740;2023-02-15T17:00:22;44.30;;;20.43;;
5052;SDS011;2545;50.892;5.740;2023-02-15T17:02:53;37.10;;;20.13;;
5052;SDS011;2545;50.892;5.740;2023-02-15T17:05:30;43.30;;;20.40;;
5052;SDS011;2545;50.892;5.740;2023-02-15T17:13:01;50.63;;;22.80;;
5052;SDS011;2545;50.892;5.740;2023-02-15T17:15:35;53.57;;;24.37;;
5052;SDS011;2545;50.892;5.740;2023-02-15T17:18:08;52.73;;;24.47;;
5052;SDS011;2545;50.892;5.740;2023-02-15T17:20:40;41.43;;;22.90;;
5052;SDS011;2545;50.892;5.740;2023-02-15T17:25:57;41.27;;;20.60;;
5052;SDS011;2545;50.892;5.740;2023-02-15T17:28:26;44.83;;;22.10;;
5052;SDS011;2545;50.892;5.740;2023-02-15T17:30:54;46.97;;;22.60;;
5052;SDS011;2545;50.892;5.740;2023-02-15T17:33:39;40.97;;;21.60;;
5052;SDS011;2545;50.892;5.740;2023-02-15T17:36:16;53.00;;;21.47;;
5052;SDS011;2545;50.892;5.740;2023-02-15T17:41:27;39.33;;;19.53;;
5052;SDS011;2545;50.892;5.740;2023-02-15T17:43:52;50.40;;;21.60;;
5052;SDS011;2545;50.892;5.740;2023-02-15T17:46:18;45.50;;;20.83;;
5052;SDS011;2545;50.892;5.740;2023-02-15T17:48:47;47.33;;;23.80;;
5052;SDS011;2545;50.892;5.740;2023-02-15T17:51:13;49.53;;;24.47;;
5052;SDS011;2545;50.892;5.740;2023-02-15T17:53:39;49.53;;;24.97;;
5052;SDS011;2545;50.892;5.740;2023-02-15T17:56:05;45.83;;;25.13;;
5052;SDS011;2545;50.892;5.740;2023-02-15T17:58:37;59.93;;;25.50;;
5052;SDS011;2545;50.892;5.740;2023-02-15T18:01:06;40.00;;;22.40;;
5052;SDS011;2545;50.892;5.740;2023-02-15T18:03:54;57.63;;;23.70;;
5052;SDS011;2545;50.892;5.740;2023-02-15T18:06:40;48.13;;;22.93;;
5052;SDS011;2545;50.892;5.740;2023-02-15T18:09:25;54.00;;;26.97;;
5052;SDS011;2545;50.892;5.740;2023-02-15T18:12:22;51.93;;;25.37;;
5052;SDS011;2545;50.892;5.740;2023-02-15T18:14:49;47.87;;;25.60;;
5052;SDS011;2545;50.892;5.740;2023-02-15T18:17:16;48.73;;;24.77;;
5052;SDS011;2545;50.892;5.740;2023-02-15T18:19:42;50.20;;;24.13;;
5052;SDS011;2545;50.892;5.740;2023-02-15T18:22:09;48.00;;;24.80;;
5052;SDS011;2545;50.892;5.740;2023-02-15T18:24:36;48.43;;;25.27;;
5052;SDS011;2545;50.892;5.740;2023-02-15T18:27:03;47.80;;;21.13;;
5052;SDS011;2545;50.892;5.740;2023-02-15T18:29:29;53.03;;;23.07;;
5052;SDS011;2545;50.892;5.740;2023-02-15T18:31:54;48.20;;;22.00;;
5052;SDS011;2545;50.892;5.740;2023-02-15T18:34:28;52.10;;;23.00;;
5052;SDS011;2545;50.892;5.740;2023-02-15T18:36:56;54.43;;;22.03;;
5052;SDS011;2545;50.892;5.740;2023-02-15T18:39:37;46.70;;;21.93;;